Time;durP1;ratioP1;P1;durP2;ratioP2;P2;SDS_P1;SDS_P2;PMS_P1;PMS_P2;Temp;Humidity;BMP_temperature;BMP_pressure;BME280_temperature;BME280_humidity;BME280_pressure;Samples;Min_cycle;Max_cycle;Signal;HPM_P1;HPM_P2
2021/06/16 00:00:17;;;;;;;3.78;1.70;;;;;;;12.57;72.63;101696.94;5042224;28;20300;-76
2021/06/16 00:02:43;;;;;;;4.43;2.50;;;;;;;12.22;73.97;101690.22;5057294;28;20060;-76
2021/06/16 00:05:11;;;;;;;4.25;1.63;;;;;;;12.51;73.11;101689.97;5058268;28;20105;-76
2021/06/16 00:07:37;;;;;;;6.85;1.70;;;;;;;12.51;73.29;101689.13;5058495;28;20082;-76
2021/06/16 00:10:04;;;;;;;4.60;1.80;;;;;;;12.15;74.22;101694.63;5041368;28;20056;-76
2021/06/16 00:12:29;;;;;;;6.93;1.92;;;;;;;12.03;74.48;101692.09;5075177;28;20048;-76
2021/06/16 00:14:55;;;;;;;3.03;1.80;;;;;;;12.31;73.53;101687.53;5040792;28;20146;-76
2021/06/16 00:17:21;;;;;;;3.63;1.50;;;;;;;12.54;72.56;101694.31;5057638;28;20089;-76
2021/06/16 00:19:46;;;;;;;3.53;1.70;;;;;;;12.30;74.17;101691.03;5057208;28;20369;-76
2021/06/16 00:22:12;;;;;;;3.42;1.65;;;;;;;12.12;74.65;101688.53;5057511;28;20032;-76
2021/06/16 00:24:37;;;;;;;4.43;1.60;;;;;;;12.33;73.44;101684.91;5056668;28;20024;-76
2021/06/16 00:27:03;;;;;;;3.42;1.75;;;;;;;12.54;72.22;101683.84;5057250;28;20040;-76
2021/06/16 00:29:29;;;;;;;2.67;1.63;;;;;;;12.31;73.42;101682.28;5040443;28;20016;-76
2021/06/16 00:31:54;;;;;;;2.78;1.45;;;;;;;12.04;74.68;101682.47;5057168;28;20479;-76
2021/06/16 00:34:19;;;;;;;6.80;1.75;;;;;;;11.95;75.44;101679.03;5040410;28;20028;-76
2021/06/16 00:36:45;;;;;;;7.00;2.45;;;;;;;11.88;76.10;101679.94;5040592;28;20313;-76
2021/06/16 00:39:10;;;;;;;5.25;1.95;;;;;;;12.03;74.97;101678.13;5040444;28;20024;-76
2021/06/16 00:41:38;;;;;;;4.47;1.80;;;;;;;12.00;74.96;101669.41;5074543;28;20435;-76
2021/06/16 00:44:04;;;;;;;5.97;2.38;;;;;;;11.88;75.54;101666.84;5039755;28;20028;-76
2021/06/16 00:46:30;;;;;;;4.20;2.40;;;;;;;11.77;76.50;101663.41;5074481;28;20021;-76
2021/06/16 00:48:55;;;;;;;4.22;2.60;;;;;;;11.94;75.35;101672.09;5074706;28;20378;-76
2021/06/16 00:51:21;;;;;;;7.13;2.83;;;;;;;12.04;75.00;101670.28;5039901;28;20071;-77
2021/06/16 00:53:46;;;;;;;7.50;3.47;;;;;;;11.48;77.35;101667.91;5056635;28;20028;-77
2021/06/16 00:56:11;;;;;;;6.97;2.83;;;;;;;11.67;76.52;101663.47;5056559;28;20394;-76
2021/06/16 00:58:37;;;;;;;2.83;2.45;;;;;;;11.91;75.41;101666.81;5040282;28;20478;-76
2021/06/16 01:01:16;;;;;;;5.72;2.05;;;;;;;12.03;75.09;101670.28;5056801;28;20317;-76
2021/06/16 01:03:48;;;;;;;4.22;2.15;;;;;;;12.16;73.68;101661.44;5039944;28;20419;-76
2021/06/16 01:06:36;;;;;;;7.53;3.42;;;;;;;11.65;76.27;101659.97;5074430;28;20024;-76
2021/06/16 01:09:18;;;;;;;2.88;2.00;;;;;;;11.26;77.63;101672.38;5056399;28;20043;-76
2021/06/16 01:12:02;;;;;;;6.15;2.40;;;;;;;11.25;78.06;101665.41;5039777;28;20123;-76
2021/06/16 01:14:43;;;;;;;2.37;2.03;;;;;;;11.25;77.90;101669.78;5039844;28;20048;-76
2021/06/16 01:17:10;;;;;;;3.58;2.15;;;;;;;11.05;78.81;101668.06;5073346;28;20285;-76
2021/06/16 01:19:45;;;;;;;5.20;2.28;;;;;;;11.11;78.76;101668.06;5057120;28;20082;-78
2021/06/16 01:22:42;;;;;;;3.00;1.77;;;;;;;11.33;77.36;101663.63;5073665;28;20021;-80
2021/06/16 01:25:18;;;;;;;2.42;1.67;;;;;;;11.28;77.82;101660.16;5040260;28;20024;-80
2021/06/16 01:27:43;;;;;;;4.38;1.83;;;;;;;11.40;77.29;101660.97;5073850;28;20021;-80
2021/06/16 01:30:09;;;;;;;2.25;1.73;;;;;;;11.58;76.13;101658.28;5040231;28;20416;-80
2021/06/16 01:32:35;;;;;;;1.83;1.70;;;;;;;11.62;75.49;101651.28;5040078;28;20028;-80
2021/06/16 01:35:01;;;;;;;5.95;1.95;;;;;;;11.65;75.76;101653.88;5040227;28;20470;-80
2021/06/16 01:37:26;;;;;;;2.58;1.73;;;;;;;11.66;75.29;101651.25;5039654;28;20055;-80
2021/06/16 01:39:52;;;;;;;3.00;1.60;;;;;;;11.64;75.65;101647.78;5073436;28;20073;-79
2021/06/16 01:42:19;;;;;;;3.15;2.00;;;;;;;11.33;77.15;101657.53;5039236;28;20048;-79
2021/06/16 01:44:46;;;;;;;5.78;1.95;;;;;;;11.09;77.87;101653.25;5056621;28;20025;-79
2021/06/16 01:47:15;;;;;;;4.68;2.10;;;;;;;10.78;79.39;101653.31;5056364;28;20024;-79
2021/06/16 01:49:41;;;;;;;2.55;1.60;;;;;;;11.15;77.93;101640.13;5040455;28;20109;-79
2021/06/16 01:52:06;;;;;;;6.53;2.10;;;;;;;11.22;77.68;101657.56;5039978;28;20052;-79
2021/06/16 01:54:33;;;;;;;5.05;1.85;;;;;;;11.09;78.59;101663.72;5056536;28;20082;-80
2021/06/16 01:56:58;;;;;;;5.07;2.38;;;;;;;10.91;79.26;101655.03;5059355;28;20039;-80
2021/06/16 01:59:24;;;;;;;1.98;1.75;;;;;;;11.01;78.93;101657.63;5060856;28;20037;-80
2021/06/16 02:01:50;;;;;;;3.83;1.75;;;;;;;11.22;77.78;101659.28;5043583;28;20484;-79
2021/06/16 02:04:16;;;;;;;2.28;1.60;;;;;;;11.18;77.82;101663.69;5060432;28;20028;-79
2021/06/16 02:06:44;;;;;;;2.65;1.85;;;;;;;11.20;77.57;101654.06;5060258;28;20024;-79
2021/06/16 02:09:11;;;;;;;4.45;1.85;;;;;;;11.32;76.57;101661.88;5027432;28;20400;-80
2021/06/16 02:11:38;;;;;;;3.05;2.00;;;;;;;11.05;78.18;101664.59;5060397;28;20024;-79
2021/06/16 02:14:06;;;;;;;2.95;1.90;;;;;;;11.19;77.43;101664.53;5059931;28;20032;-79
2021/06/16 02:16:36;;;;;;;3.45;1.73;;;;;;;11.25;77.24;101665.41;5060424;28;20016;-79
2021/06/16 02:19:25;;;;;;;3.13;1.80;;;;;;;11.22;77.86;101670.66;5059920;28;20050;-79
2021/06/16 02:21:55;;;;;;;3.17;1.75;;;;;;;11.14;77.66;101667.19;5044143;28;20028;-79
2021/06/16 02:24:21;;;;;;;4.18;2.03;;;;;;;10.93;78.20;101676.78;5043292;28;20055;-80
2021/06/16 02:26:46;;;;;;;3.83;1.80;;;;;;;11.04;77.88;101670.69;5060574;28;20071;-79
2021/06/16 02:29:12;;;;;;;3.95;2.13;;;;;;;10.81;79.10;101668.97;5043507;28;20077;-79
2021/06/16 02:31:39;;;;;;;3.58;1.65;;;;;;;10.78;79.23;101661.16;5059967;28;20020;-78
2021/06/16 02:34:05;;;;;;;3.85;2.75;;;;;;;10.91;78.83;101660.25;5043064;28;20024;-79
2021/06/16 02:36:33;;;;;;;4.00;2.15;;;;;;;10.71;79.62;101657.69;5043702;28;20051;-79
2021/06/16 02:39:01;;;;;;;4.05;2.60;;;;;;;10.44;80.56;101649.00;5043254;28;20124;-79
2021/06/16 02:41:28;;;;;;;3.40;2.53;;;;;;;10.36;81.41;101653.38;5059898;28;20058;-79
2021/06/16 02:43:53;;;;;;;3.45;2.28;;;;;;;10.69;79.88;101650.72;5060602;28;20031;-79
2021/06/16 02:46:19;;;;;;;5.03;2.15;;;;;;;10.77;79.30;101646.34;5059926;28;20021;-79
2021/06/16 02:48:48;;;;;;;2.63;1.98;;;;;;;10.83;79.99;101662.03;5043069;28;20028;-79
2021/06/16 02:51:14;;;;;;;3.63;2.75;;;;;;;10.76;78.85;101649.84;5076180;28;20056;-78
2021/06/16 02:53:41;;;;;;;5.38;2.13;;;;;;;10.80;79.79;101644.59;5042886;28;20337;-78
2021/06/16 02:56:07;;;;;;;3.90;2.20;;;;;;;10.88;79.02;101643.72;5042883;28;20119;-78
2021/06/16 02:58:35;;;;;;;5.07;2.33;;;;;;;10.97;79.22;101644.53;5059521;28;20123;-78
2021/06/16 03:01:02;;;;;;;2.60;2.38;;;;;;;10.81;79.89;101637.63;5059246;28;20020;-78
2021/06/16 03:03:27;;;;;;;3.63;1.90;;;;;;;10.69;79.77;101642.88;5057628;28;20118;-78
2021/06/16 03:05:55;;;;;;;4.80;2.40;;;;;;;10.81;79.96;101648.97;5059449;28;20151;-78
2021/06/16 03:08:22;;;;;;;7.72;2.35;;;;;;;10.91;79.57;101643.72;5058924;28;20042;-79
2021/06/16 03:10:47;;;;;;;6.00;2.58;;;;;;;10.81;79.52;101645.47;5043264;28;20056;-79
2021/06/16 03:13:13;;;;;;;4.35;2.20;;;;;;;10.62;80.02;101640.28;5059061;28;20450;-79
2021/06/16 03:15:46;;;;;;;5.32;2.70;;;;;;;10.38;80.76;101643.78;5043163;28;20013;-79
2021/06/16 03:18:12;;;;;;;6.22;2.78;;;;;;;10.64;80.03;101646.34;5059716;28;20031;-78
2021/06/16 03:20:38;;;;;;;2.10;1.83;;;;;;;10.90;78.67;101642.84;5042682;28;20023;-78
2021/06/16 03:23:04;;;;;;;3.33;2.20;;;;;;;10.86;78.63;101640.25;5058668;28;20420;-79
2021/06/16 03:25:29;;;;;;;4.47;2.15;;;;;;;10.31;80.75;101637.66;5042458;28;20040;-78
2021/06/16 03:27:55;;;;;;;2.83;1.92;;;;;;;10.66;79.52;101638.50;5058821;28;20020;-79
2021/06/16 03:30:22;;;;;;;2.67;2.30;;;;;;;10.45;80.18;101636.81;5059424;28;20378;-79
2021/06/16 03:32:49;;;;;;;3.38;2.10;;;;;;;10.81;79.59;101645.47;5058912;28;20066;-78
2021/06/16 03:35:15;;;;;;;3.13;1.95;;;;;;;11.01;78.28;101645.41;5042480;28;20419;-79
2021/06/16 03:37:41;;;;;;;2.58;2.30;;;;;;;11.05;77.71;101638.44;5059155;28;20036;-79
2021/06/16 03:40:07;;;;;;;3.78;2.50;;;;;;;11.08;77.86;101646.28;5058605;28;20024;-79
2021/06/16 03:42:33;;;;;;;4.18;2.08;;;;;;;11.05;78.08;101635.84;5058865;28;20028;-79
2021/06/16 03:45:06;;;;;;;7.10;2.50;;;;;;;11.08;77.67;101641.91;5057369;28;20424;-80
2021/06/16 03:47:32;;;;;;;3.05;2.00;;;;;;;11.25;77.05;101644.47;5057262;28;20094;-79
2021/06/16 03:49:59;;;;;;;2.45;2.22;;;;;;;11.20;77.44;101635.78;5058022;28;20400;-78
2021/06/16 03:52:25;;;;;;;2.20;1.80;;;;;;;11.28;76.97;101633.13;5058695;28;20020;-79
2021/06/16 03:54:53;;;;;;;2.70;1.83;;;;;;;11.47;76.05;101636.53;5042084;28;20027;-79
2021/06/16 03:57:19;;;;;;;4.75;2.25;;;;;;;11.51;77.21;101640.88;5059289;28;20027;-79
2021/06/16 03:59:45;;;;;;;2.85;2.17;;;;;;;11.63;76.67;101635.56;5058456;28;20021;-79
2021/06/16 04:02:10;;;;;;;6.53;2.47;;;;;;;11.54;77.78;101638.22;5058094;28;20122;-79
2021/06/16 04:04:36;;;;;;;2.55;2.00;;;;;;;11.74;76.53;101627.66;5058170;28;20024;-79
2021/06/16 04:07:02;;;;;;;4.07;2.30;;;;;;;11.81;75.58;101631.13;5041688;28;20020;-79
2021/06/16 04:09:28;;;;;;;6.80;2.38;;;;;;;11.93;75.97;101623.19;5041886;28;20052;-80
2021/06/16 04:11:53;;;;;;;3.92;2.35;;;;;;;12.02;76.15;101631.88;5058278;28;20059;-79
2021/06/16 04:14:23;;;;;;;2.33;2.10;;;;;;;12.09;75.44;101629.22;5041564;28;20016;-80
2021/06/16 04:16:51;;;;;;;3.85;2.20;;;;;;;12.16;75.41;101635.25;5075771;28;20082;-80
2021/06/16 04:19:17;;;;;;;5.22;2.05;;;;;;;12.20;75.34;101629.09;5057816;28;20032;-79
2021/06/16 04:21:42;;;;;;;4.15;2.60;;;;;;;11.80;76.74;101637.22;5041651;28;20020;-79
2021/06/16 04:24:07;;;;;;;5.45;2.13;;;;;;;12.10;76.24;101630.06;5041869;28;20347;-80
2021/06/16 04:26:33;;;;;;;3.47;2.67;;;;;;;12.16;75.19;101625.66;5059754;28;20028;-81
2021/06/16 04:28:58;;;;;;;5.25;2.53;;;;;;;12.27;74.35;101633.44;5042251;28;20090;-79
2021/06/16 04:31:23;;;;;;;4.32;2.20;;;;;;;12.16;75.52;101636.13;5041945;28;20424;-79
2021/06/16 04:33:49;;;;;;;3.08;2.55;;;;;;;12.17;75.66;101637.00;5061999;28;20035;-78
2021/06/16 04:36:14;;;;;;;5.32;2.72;;;;;;;12.21;76.00;101628.22;5045046;28;20101;-79
2021/06/16 04:38:39;;;;;;;4.32;2.33;;;;;;;12.20;75.42;101630.84;5042184;28;20028;-78
2021/06/16 04:41:05;;;;;;;5.40;3.17;;;;;;;12.39;75.73;101632.44;5041100;28;20025;-79
2021/06/16 04:43:31;;;;;;;9.05;2.20;;;;;;;12.59;74.45;101636.63;5057952;28;20477;-79
2021/06/16 04:45:59;;;;;;;5.78;2.35;;;;;;;12.70;73.89;101626.91;5057737;28;20083;-79
2021/06/16 04:48:24;;;;;;;3.70;2.60;;;;;;;12.80;73.77;101627.69;5041574;28;20030;-79
2021/06/16 04:50:50;;;;;;;5.38;3.13;;;;;;;12.60;74.64;101641.88;5057487;28;20024;-79
2021/06/16 04:53:15;;;;;;;5.57;2.58;;;;;;;12.59;75.02;101636.63;5040605;28;20058;-79
2021/06/16 04:55:40;;;;;;;3.22;2.92;;;;;;;12.50;75.07;101640.19;5040614;28;20116;-78
2021/06/16 04:58:06;;;;;;;5.35;3.00;;;;;;;12.44;75.33;101640.28;5041171;28;20111;-77
2021/06/16 05:00:31;;;;;;;7.03;2.63;;;;;;;12.44;75.60;101635.03;5059215;28;20020;-78
2021/06/16 05:02:59;;;;;;;6.05;3.05;;;;;;;12.64;75.04;101633.09;5058258;28;20028;-79
2021/06/16 05:05:24;;;;;;;5.22;2.88;;;;;;;12.92;74.10;101631.94;5057150;28;20028;-79
2021/06/16 05:07:50;;;;;;;3.92;2.63;;;;;;;12.76;74.62;101629.47;5057007;28;20422;-78
2021/06/16 05:10:15;;;;;;;3.20;1.95;;;;;;;13.20;73.54;101629.84;5056754;28;20340;-79
2021/06/16 05:12:42;;;;;;;10.55;2.90;;;;;;;13.06;73.12;101630.03;5057728;28;20025;-78
2021/06/16 05:15:08;;;;;;;5.22;2.72;;;;;;;13.06;72.96;101630.03;5058483;28;20031;-79
2021/06/16 05:17:33;;;;;;;3.92;2.05;;;;;;;13.09;73.98;101619.50;5057010;28;20036;-80
2021/06/16 05:19:58;;;;;;;3.45;2.22;;;;;;;13.30;73.16;101620.97;5042346;28;20023;-80
2021/06/16 05:22:25;;;;;;;2.70;1.90;;;;;;;13.71;72.01;101607.34;5056634;28;20024;-79
2021/06/16 05:24:50;;;;;;;5.05;2.33;;;;;;;13.96;70.59;101607.81;5075013;28;20025;-80
2021/06/16 05:27:16;;;;;;;3.75;2.00;;;;;;;14.37;69.84;101604.53;5039413;28;20117;-79
2021/06/16 05:29:45;;;;;;;7.10;2.45;;;;;;;14.98;67.79;101616.56;5039471;28;20044;-79
2021/06/16 05:32:10;;;;;;;3.03;1.88;;;;;;;15.06;66.96;101609.38;5039187;28;20316;-79
2021/06/16 05:34:36;;;;;;;3.97;1.60;;;;;;;14.87;67.67;101619.41;5056403;28;20027;-79
2021/06/16 05:37:02;;;;;;;4.13;1.23;;;;;;;15.67;64.73;101612.47;5057479;28;20033;-80
2021/06/16 05:39:28;;;;;;;2.15;1.38;;;;;;;16.08;63.55;101616.84;5039795;28;20035;-79
2021/06/16 05:41:53;;;;;;;3.47;1.70;;;;;;;16.00;63.15;101604.69;5056908;28;20199;-80
2021/06/16 05:44:19;;;;;;;4.55;1.63;;;;;;;16.91;59.22;101593.56;5039375;28;20027;-80
2021/06/16 05:46:44;;;;;;;3.63;1.60;;;;;;;17.80;57.18;101594.41;5039717;28;20028;-80
2021/06/16 05:49:09;;;;;;;2.78;1.40;;;;;;;18.33;54.88;101594.44;5039844;28;20017;-84
2021/06/16 05:51:35;;;;;;;3.13;1.25;;;;;;;18.74;53.78;101589.44;5040561;28;20042;-84
2021/06/16 05:54:00;;;;;;;4.22;1.63;;;;;;;19.50;50.20;101588.44;5056692;28;20330;-82
2021/06/16 05:56:25;;;;;;;1.80;1.05;;;;;;;20.47;47.87;101575.63;5040611;28;20089;-82
2021/06/16 05:58:51;;;;;;;1.85;0.90;;;;;;;19.15;50.00;101580.94;5040209;28;20033;-83
2021/06/16 06:01:16;;;;;;;3.97;1.60;;;;;;;18.57;52.53;101583.94;5040931;28;20032;-82
2021/06/16 06:03:42;;;;;;;3.72;1.58;;;;;;;17.88;55.30;101565.97;5040025;28;20025;-82
2021/06/16 06:06:08;;;;;;;2.15;1.40;;;;;;;18.67;52.88;101572.09;5040380;28;20032;-81
2021/06/16 06:08:33;;;;;;;2.97;1.30;;;;;;;18.38;53.23;101576.63;5041055;28;20555;-82
2021/06/16 06:10:59;;;;;;;4.40;1.20;;;;;;;20.16;48.77;101571.63;5057018;28;20016;-82
2021/06/16 06:13:24;;;;;;;2.25;1.42;;;;;;;21.53;45.73;101573.47;5040730;28;20077;-81
2021/06/16 06:15:49;;;;;;;5.32;3.35;;;;;;;22.18;42.68;101570.22;5040464;28;20427;-82
2021/06/16 06:18:15;;;;;;;4.30;1.23;;;;;;;22.61;41.71;101567.16;5056997;28;20113;-82
2021/06/16 06:20:40;;;;;;;1.92;1.30;;;;;;;23.06;40.10;101564.75;5040927;28;20028;-83
2021/06/16 06:23:05;;;;;;;2.10;1.35;;;;;;;23.19;39.24;101563.16;5046735;28;20077;-83
2021/06/16 06:25:31;;;;;;;3.08;1.23;;;;;;;23.62;38.71;101559.88;5040608;28;20201;-83
2021/06/16 06:27:56;;;;;;;3.15;1.40;;;;;;;23.62;38.52;101559.88;5042835;28;20101;-83
2021/06/16 06:30:21;;;;;;;2.05;1.40;;;;;;;23.69;38.97;101563.03;5042694;28;20029;-86
2021/06/16 06:32:47;;;;;;;3.13;1.40;;;;;;;23.91;37.73;101565.34;5040631;28;20033;-85
2021/06/16 06:35:12;;;;;;;2.55;1.67;;;;;;;21.59;42.69;101566.97;5040140;28;20090;-84
2021/06/16 06:37:38;;;;;;;3.08;1.00;;;;;;;24.06;38.79;101563.56;5040947;28;20024;-83
2021/06/16 06:40:04;;;;;;;2.63;1.10;;;;;;;25.09;36.27;101565.25;5045847;28;20032;-85
2021/06/16 06:42:29;;;;;;;2.28;1.17;;;;;;;24.86;36.59;101560.53;5034754;28;20020;-85
2021/06/16 06:44:55;;;;;;;2.08;1.05;;;;;;;22.84;39.57;101565.06;5056214;28;20025;-85
2021/06/16 06:47:22;;;;;;;1.33;0.95;;;;;;;22.44;40.67;101558.28;5041527;28;20078;-82
2021/06/16 06:49:48;;;;;;;1.02;0.80;;;;;;;24.49;37.35;101555.63;5049107;28;20047;-83
2021/06/16 06:52:13;;;;;;;2.85;0.93;;;;;;;22.24;42.43;101548.63;5039830;28;20056;-83
2021/06/16 06:54:38;;;;;;;2.13;1.10;;;;;;;22.82;39.79;101545.66;5036648;28;20031;-83
2021/06/16 06:57:04;;;;;;;3.58;1.20;;;;;;;23.38;38.57;101549.66;5052261;28;20027;-81
2021/06/16 06:59:29;;;;;;;2.75;1.10;;;;;;;22.77;41.56;101546.75;5050297;28;20325;-80
2021/06/16 07:01:55;;;;;;;2.45;1.10;;;;;;;24.93;36.58;101544.00;5037636;28;20024;-83
2021/06/16 07:04:21;;;;;;;1.80;1.00;;;;;;;26.78;33.19;101532.59;5052103;28;20108;-84
2021/06/16 07:06:46;;;;;;;2.00;0.93;;;;;;;27.36;31.93;101538.22;5051073;28;20316;-82
2021/06/16 07:09:12;;;;;;;1.60;0.85;;;;;;;27.83;30.82;101528.44;5033873;28;20105;-82
2021/06/16 07:11:37;;;;;;;4.57;0.98;;;;;;;28.46;30.09;101517.31;5031933;28;20029;-83
2021/06/16 07:14:02;;;;;;;1.88;0.90;;;;;;;28.82;29.39;101520.78;5022898;28;20045;-81
2021/06/16 07:16:28;;;;;;;1.65;0.73;;;;;;;28.72;29.41;101517.09;5023257;28;20025;-82
2021/06/16 07:18:53;;;;;;;2.65;1.10;;;;;;;28.99;28.91;101515.84;5022499;28;20029;-83
2021/06/16 07:21:18;;;;;;;4.22;0.85;;;;;;;29.42;28.11;101522.22;5023194;28;20486;-82
2021/06/16 07:23:44;;;;;;;2.45;1.02;;;;;;;29.87;27.20;101510.41;5040886;28;20168;-82
2021/06/16 07:26:09;;;;;;;1.33;0.90;;;;;;;30.15;27.50;101523.19;5040259;28;20104;-82
2021/06/16 07:28:35;;;;;;;3.75;1.20;;;;;;;30.46;26.79;101523.25;5041260;28;20099;-81
2021/06/16 07:31:01;;;;;;;1.95;1.23;;;;;;;30.09;26.52;101515.66;5033654;28;20219;-83
2021/06/16 07:33:30;;;;;;;3.03;0.95;;;;;;;29.27;28.07;101518.97;5044549;28;20025;-82
2021/06/16 07:35:56;;;;;;;2.63;0.85;;;;;;;26.06;32.88;101509.06;5051559;28;20032;-79
2021/06/16 07:38:21;;;;;;;4.50;1.10;;;;;;;29.40;28.38;101508.91;5059173;28;20027;-83
2021/06/16 07:40:46;;;;;;;3.30;0.93;;;;;;;30.59;26.67;101506.00;5039461;28;20043;-75
2021/06/16 07:43:12;;;;;;;4.35;1.50;;;;;;;30.92;26.34;101506.66;5057620;28;20091;-75
2021/06/16 07:45:37;;;;;;;1.77;1.25;;;;;;;30.97;26.04;101509.78;5041181;28;20089;-75
2021/06/16 07:48:03;;;;;;;1.67;1.00;;;;;;;29.41;29.04;101499.84;5058302;28;20043;-76
2021/06/16 07:50:29;;;;;;;2.13;1.55;;;;;;;29.03;29.54;101500.31;5041670;28;20435;-76
2021/06/16 07:52:55;;;;;;;1.13;1.00;;;;;;;30.76;26.96;101502.66;5057315;28;20044;-77
2021/06/16 07:55:20;;;;;;;3.30;1.63;;;;;;;32.16;24.78;101502.44;5055805;28;20048;-75
2021/06/16 07:57:45;;;;;;;1.83;1.30;;;;;;;30.07;27.26;101496.09;5056485;28;20498;-75
2021/06/16 08:00:12;;;;;;;6.03;1.00;;;;;;;30.56;27.57;101500.88;5056069;28;20116;-77
2021/06/16 08:02:38;;;;;;;1.63;0.95;;;;;;;30.96;26.75;101491.91;5066258;28;20115;-76
2021/06/16 08:05:05;;;;;;;2.38;0.90;;;;;;;32.72;23.67;101491.66;5056561;28;20100;-75
2021/06/16 08:07:30;;;;;;;2.38;1.35;;;;;;;32.35;24.36;101489.81;5062594;28;20031;-76
2021/06/16 08:09:55;;;;;;;3.63;0.90;;;;;;;32.13;24.63;101486.44;5057051;28;20399;-78
2021/06/16 08:12:21;;;;;;;2.30;0.85;;;;;;;33.10;23.40;101481.56;5038207;28;20082;-79
2021/06/16 08:14:46;;;;;;;1.95;0.90;;;;;;;33.11;23.30;101479.72;5057253;28;20032;-78
2021/06/16 08:17:12;;;;;;;2.15;1.20;;;;;;;33.46;22.67;101478.91;5057112;28;20028;-78
2021/06/16 08:19:37;;;;;;;2.13;1.10;;;;;;;32.21;24.14;101469.53;5046729;28;20031;-76
2021/06/16 08:22:06;;;;;;;1.73;0.85;;;;;;;33.12;22.79;101471.47;5041812;28;20032;-76
2021/06/16 08:24:32;;;;;;;5.28;1.05;;;;;;;32.40;23.31;101471.31;5057235;28;20387;-78
2021/06/16 08:26:57;;;;;;;3.03;1.00;;;;;;;29.20;27.10;101480.09;5040293;28;20028;-79
2021/06/16 08:29:22;;;;;;;2.15;1.15;;;;;;;27.60;31.41;101475.66;5040457;28;20031;-76
2021/06/16 08:31:48;;;;;;;1.52;0.70;;;;;;;27.20;30.66;101473.25;5038044;28;20301;-74
2021/06/16 08:34:13;;;;;;;2.55;0.85;;;;;;;25.74;33.65;101472.81;5036012;28;20047;-75
2021/06/16 08:36:41;;;;;;;3.72;1.58;;;;;;;23.17;39.18;101468.28;5057092;28;20066;-75
2021/06/16 08:39:06;;;;;;;2.30;1.30;;;;;;;23.64;39.65;101477.94;5057364;28;20044;-75
2021/06/16 08:41:31;;;;;;;1.95;0.80;;;;;;;23.70;38.94;101480.28;5031704;28;20020;-77
2021/06/16 08:43:57;;;;;;;4.38;1.20;;;;;;;23.00;40.22;101471.84;5058429;28;20479;-76
2021/06/16 08:46:23;;;;;;;3.22;1.10;;;;;;;22.93;40.73;101474.00;5050095;28;20168;-78
2021/06/16 08:48:48;;;;;;;1.48;1.27;;;;;;;22.20;42.22;101469.91;5070863;28;20027;-77
2021/06/16 08:51:15;;;;;;;1.38;1.02;;;;;;;22.53;42.30;101463.75;5055622;28;20111;-76
2021/06/16 08:53:44;;;;;;;3.13;1.60;;;;;;;22.77;42.60;101466.88;5060465;28;20024;-78
2021/06/16 08:56:10;;;;;;;2.53;1.13;;;;;;;21.91;44.92;101466.09;5050772;28;20078;-79
2021/06/16 08:58:37;;;;;;;5.13;1.27;;;;;;;22.13;44.15;101463.22;5037456;28;20300;-77
2021/06/16 09:01:04;;;;;;;2.30;1.35;;;;;;;22.75;42.06;101465.22;5055276;28;20029;-76
2021/06/16 09:03:29;;;;;;;3.83;1.20;;;;;;;22.88;40.63;101468.09;5054856;28;20016;-77
2021/06/16 09:05:54;;;;;;;3.60;1.35;;;;;;;22.93;41.12;101460.66;5055929;28;20429;-77
2021/06/16 09:08:23;;;;;;;2.70;1.00;;;;;;;23.15;40.86;101459.50;5040166;28;20332;-76
2021/06/16 09:10:53;;;;;;;4.53;1.30;;;;;;;23.33;41.73;101458.44;5056616;28;20073;-77
2021/06/16 09:13:25;;;;;;;4.57;1.40;;;;;;;23.49;41.00;101449.53;5049327;28;20040;-77
2021/06/16 09:15:53;;;;;;;2.30;1.27;;;;;;;23.38;41.30;101456.38;5051576;28;20009;-79
2021/06/16 09:18:18;;;;;;;2.80;1.15;;;;;;;23.44;39.81;101455.16;5034858;28;20044;-77
2021/06/16 09:20:47;;;;;;;1.50;1.40;;;;;;;22.87;42.17;101453.03;5055084;28;20047;-78
2021/06/16 09:23:18;;;;;;;2.83;1.42;;;;;;;22.97;41.93;101443.56;5061452;28;20343;-79
2021/06/16 09:25:45;;;;;;;2.08;1.08;;;;;;;23.24;41.98;101448.31;5077022;28;20102;-74
2021/06/16 09:28:11;;;;;;;2.70;1.02;;;;;;;23.26;41.26;101443.72;5035854;28;20033;-76
2021/06/16 09:30:42;;;;;;;4.50;1.38;;;;;;;23.12;41.33;101440.09;5064688;28;20025;-78
2021/06/16 09:33:16;;;;;;;2.20;1.13;;;;;;;23.04;42.32;101442.31;5056797;28;20016;-77
2021/06/16 09:35:48;;;;;;;4.40;1.50;;;;;;;22.47;43.42;101436.59;5059431;28;20026;-77
2021/06/16 09:38:22;;;;;;;2.25;1.20;;;;;;;23.01;41.83;101431.78;5060674;28;20043;-76
2021/06/16 09:40:48;;;;;;;3.08;1.15;;;;;;;22.79;42.51;101426.84;5049464;28;20123;-77
2021/06/16 09:43:15;;;;;;;3.53;1.67;;;;;;;23.13;42.76;101428.47;5071981;28;20480;-76
2021/06/16 09:45:44;;;;;;;2.80;1.30;;;;;;;23.12;42.83;101434.75;5062547;28;20396;-76
2021/06/16 09:48:21;;;;;;;1.67;1.02;;;;;;;23.15;42.79;101432.84;5059706;28;20021;-77
2021/06/16 09:50:47;;;;;;;4.55;1.60;;;;;;;23.42;41.74;101425.91;5056906;28;20587;-76
2021/06/16 09:53:12;;;;;;;4.65;1.20;;;;;;;23.38;42.39;101426.19;5037977;28;20024;-77
2021/06/16 09:55:38;;;;;;;3.50;1.30;;;;;;;23.22;41.23;101418.22;5037988;28;20021;-76
2021/06/16 09:58:05;;;;;;;1.23;0.95;;;;;;;23.10;41.17;101415.28;5062673;28;20020;-75
2021/06/16 10:00:35;;;;;;;2.13;0.88;;;;;;;23.42;40.71;101412.59;5050301;28;20419;-76
2021/06/16 10:03:21;;;;;;;2.85;1.33;;;;;;;23.65;40.61;101418.34;5043303;28;20025;-77
2021/06/16 10:06:25;;;;;;;1.05;0.90;;;;;;;23.41;40.63;101415.31;5074122;28;20119;-78
2021/06/16 10:08:50;;;;;;;3.25;1.30;;;;;;;23.33;42.08;101415.78;4957214;28;20042;-77
2021/06/16 10:11:21;;;;;;;4.72;1.40;;;;;;;23.54;40.80;101402.13;4959435;28;20334;-76
2021/06/16 10:13:49;;;;;;;2.08;1.13;;;;;;;23.69;40.13;101400.38;5001819;28;20036;-78
2021/06/16 10:16:18;;;;;;;2.88;1.08;;;;;;;23.52;40.54;101399.56;5038525;28;20341;-78
2021/06/16 10:18:44;;;;;;;2.47;1.10;;;;;;;23.78;41.26;101403.31;5063842;28;20031;-76
2021/06/16 10:21:21;;;;;;;2.75;1.13;;;;;;;23.88;40.34;101403.66;5043611;28;20033;-76
2021/06/16 10:23:46;;;;;;;2.03;1.00;;;;;;;24.01;38.34;101398.44;5071177;28;20031;-77
2021/06/16 10:26:16;;;;;;;1.73;1.30;;;;;;;24.07;39.23;101394.53;5059206;28;20025;-80
2021/06/16 10:28:44;;;;;;;1.88;1.35;;;;;;;24.08;38.77;101390.91;5057108;28;20105;-78
2021/06/16 10:31:10;;;;;;;1.80;1.20;;;;;;;24.29;37.77;101394.88;5058622;28;20040;-78
2021/06/16 10:33:40;;;;;;;2.08;1.02;;;;;;;23.71;38.58;101378.00;5040873;28;20123;-76
2021/06/16 10:36:09;;;;;;;1.10;1.00;;;;;;;23.94;38.60;101392.59;5063891;28;20016;-76
2021/06/16 10:38:35;;;;;;;5.03;1.10;;;;;;;24.51;36.74;101388.16;5054747;28;20549;-77
2021/06/16 10:41:01;;;;;;;2.40;1.02;;;;;;;25.11;35.81;101381.63;5051004;28;20406;-76
2021/06/16 10:43:30;;;;;;;1.45;1.33;;;;;;;25.19;35.31;101377.56;5063449;28;20024;-79
2021/06/16 10:46:07;;;;;;;1.83;0.95;;;;;;;25.22;34.17;101377.34;5053965;28;20020;-78
2021/06/16 10:48:59;;;;;;;4.25;1.45;;;;;;;25.55;34.84;101378.72;5032506;28;20033;-77
2021/06/16 10:51:36;;;;;;;1.65;0.95;;;;;;;25.26;35.71;101369.00;5057980;28;20020;-77
2021/06/16 10:54:19;;;;;;;1.67;1.05;;;;;;;25.71;34.82;101368.66;5040889;28;20046;-78
2021/06/16 10:56:45;;;;;;;2.75;1.40;;;;;;;25.80;34.05;101364.50;5047444;28;20087;-77
2021/06/16 10:59:12;;;;;;;2.00;1.05;;;;;;;26.68;32.25;101362.72;5061252;28;20424;-76
2021/06/16 11:01:50;;;;;;;1.67;1.10;;;;;;;27.70;30.36;101360.44;5044184;28;20025;-77
2021/06/16 11:04:27;;;;;;;4.13;0.95;;;;;;;27.29;31.37;101346.53;5030871;28;20035;-77
2021/06/16 11:06:52;;;;;;;2.25;1.20;;;;;;;28.15;29.41;101339.84;5046544;28;20107;-78
2021/06/16 11:09:18;;;;;;;1.00;0.90;;;;;;;28.01;29.35;101358.88;5059512;28;20080;-78
2021/06/16 11:11:43;;;;;;;1.20;1.00;;;;;;;27.97;29.48;101357.38;5055469;28;20028;-79
2021/06/16 11:14:08;;;;;;;1.23;1.02;;;;;;;27.29;30.60;101338.50;5049780;28;20059;-78
2021/06/16 11:16:39;;;;;;;3.33;1.73;;;;;;;27.02;31.85;101338.78;5040418;28;20371;-78
2021/06/16 11:19:23;;;;;;;1.70;1.00;;;;;;;28.21;29.39;101332.25;5048663;28;20043;-76
2021/06/16 11:21:49;;;;;;;3.30;1.05;;;;;;;29.51;26.07;101333.94;5061536;28;20048;-76
2021/06/16 11:24:15;;;;;;;3.75;1.13;;;;;;;29.87;25.93;101325.47;5055098;28;20091;-78